createdAt,value
2023-05-15T00:01:24.560Z,99836.75
2023-05-15T00:03:52.224Z,99832.41
2023-05-15T00:06:19.009Z,99831.47
2023-05-15T00:08:45.630Z,99829.75
2023-05-15T00:11:12.494Z,99829.81
2023-05-15T00:13:39.167Z,99828.91
2023-05-15T00:16:09.459Z,99827.09
2023-05-15T00:18:36.308Z,99820.97
2023-05-15T00:21:03.043Z,99829.81
2023-05-15T00:23:29.809Z,99835.03
2023-05-15T00:25:56.386Z,99835.97
2023-05-15T00:28:23.100Z,99841.25
2023-05-15T00:30:49.990Z,99851.84
2023-05-15T00:33:16.963Z,99859.75
2023-05-15T00:35:43.751Z,99855.38
2023-05-15T00:38:10.849Z,99855.38
2023-05-15T00:40:37.818Z,99855.38
2023-05-15T00:43:04.579Z,99850.09
2023-05-15T00:45:31.313Z,99845.75
2023-05-15T00:47:58.605Z,99837.81
2023-05-15T00:50:25.333Z,99831.59
2023-05-15T00:52:51.889Z,99824.59
2023-05-15T00:55:18.665Z,99829.97
2023-05-15T00:57:45.388Z,99827.31
2023-05-15T01:00:12.443Z,99830.81
2023-05-15T01:02:39.097Z,99829.12
2023-05-15T01:05:08.049Z,99826.47
2023-05-15T01:07:36.017Z,99822.03
2023-05-15T01:10:04.348Z,99813.25
2023-05-15T01:12:32.003Z,99807.97
2023-05-15T01:14:58.632Z,99798.31
2023-05-15T01:17:25.305Z,99800.94
2023-05-15T01:19:52.575Z,99798.41
2023-05-15T01:22:31.347Z,99803.59
2023-05-15T01:25:08.265Z,99806.25
2023-05-15T01:27:46.505Z,99801.03
2023-05-15T01:30:18.733Z,99795.66
2023-05-15T01:32:55.848Z,99790.38
2023-05-15T01:35:29.821Z,99793.97
2023-05-15T01:38:14.225Z,99793.09
2023-05-15T01:40:40.859Z,99796.59
2023-05-15T01:43:12.043Z,99795.84
2023-05-15T01:45:38.673Z,99791.47
2023-05-15T01:48:07.257Z,99780.81
2023-05-15T01:50:34.787Z,99774.78
2023-05-15T01:53:01.436Z,99758.84
2023-05-15T01:55:28.076Z,99757.13
2023-05-15T01:57:54.656Z,99752.69
2023-05-15T02:00:21.357Z,99746.56
2023-05-15T02:02:48.148Z,99757.13
2023-05-15T02:05:14.948Z,99758.84
2023-05-15T02:07:44.633Z,99758.91
2023-05-15T02:10:12.044Z,99767.69
2023-05-15T02:12:41.798Z,99773.00
2023-05-15T02:15:11.627Z,99766.91
2023-05-15T02:17:38.262Z,99788.00
2023-05-15T02:20:08.622Z,99793.28
2023-05-15T02:22:35.218Z,99787.09
2023-05-15T02:25:02.109Z,99782.75
2023-05-15T02:27:33.779Z,99788.03
2023-05-15T02:30:00.288Z,99803.03
2023-05-15T02:32:45.106Z,99797.84
2023-05-15T02:35:30.374Z,99810.13
2023-05-15T02:37:57.057Z,99815.41
2023-05-15T02:40:26.213Z,99819.84
2023-05-15T02:42:52.926Z,99820.69
2023-05-15T02:45:20.016Z,99813.69
2023-05-15T02:47:48.539Z,99821.62
2023-05-15T02:50:15.431Z,99808.41
2023-05-15T02:52:42.024Z,99813.69
2023-05-15T02:55:09.122Z,99805.78
2023-05-15T02:57:35.843Z,99803.19
2023-05-15T03:00:02.422Z,99802.28
2023-05-15T03:02:29.090Z,99803.13
2023-05-15T03:04:55.787Z,99798.78
2023-05-15T03:07:22.399Z,99796.13
2023-05-15T03:09:48.986Z,99791.69
2023-05-15T03:12:15.575Z,99787.28
2023-05-15T03:14:42.145Z,99786.41
2023-05-15T03:17:08.984Z,99787.28
2023-05-15T03:19:36.042Z,99777.63
2023-05-15T03:22:02.710Z,99771.47
2023-05-15T03:24:29.276Z,99762.69
2023-05-15T03:26:55.854Z,99758.25
2023-05-15T03:29:22.440Z,99759.13
2023-05-15T03:31:49.147Z,99762.69
2023-05-15T03:34:15.802Z,99757.41
2023-05-15T03:36:42.434Z,99745.09
2023-05-15T03:39:09.093Z,99732.72
2023-05-15T03:41:35.700Z,99718.66
2023-05-15T03:44:02.352Z,99716.88
2023-05-15T03:46:29.052Z,99734.53
2023-05-15T03:48:56.089Z,99739.81
2023-05-15T03:51:23.768Z,99729.25
2023-05-15T03:53:50.692Z,99725.75
2023-05-15T03:56:17.352Z,99717.75
2023-05-15T03:58:43.962Z,99731.03
2023-05-15T04:01:10.601Z,99744.25
2023-05-15T04:03:37.277Z,99725.75
2023-05-15T04:06:04.145Z,99723.09
2023-05-15T04:08:30.752Z,99722.25
2023-05-15T04:10:57.352Z,99725.75
2023-05-15T04:13:23.952Z,99722.25
2023-05-15T04:15:50.613Z,99711.69
2023-05-15T04:18:17.230Z,99711.69
2023-05-15T04:20:43.821Z,99709.97
2023-05-15T04:23:10.514Z,99707.34
2023-05-15T04:25:37.673Z,99714.31
2023-05-15T04:28:04.312Z,99714.41
2023-05-15T04:30:31.143Z,99714.41
2023-05-15T04:32:57.730Z,99715.25
2023-05-15T04:35:24.696Z,99707.34
2023-05-15T04:37:51.546Z,99700.31
2023-05-15T04:40:18.521Z,99717.91
2023-05-15T04:42:45.132Z,99728.47
2023-05-15T04:45:11.751Z,99727.63
2023-05-15T04:47:38.539Z,99726.69
2023-05-15T04:50:06.586Z,99725.81
2023-05-15T04:52:33.308Z,99735.53
2023-05-15T04:54:59.975Z,99742.59
2023-05-15T04:57:26.909Z,99738.25
2023-05-15T04:59:53.616Z,99750.47
2023-05-15T05:02:22.408Z,99769.50
2023-05-15T05:04:49.129Z,99782.94
2023-05-15T05:07:15.772Z,99777.78
2023-05-15T05:09:42.390Z,99770.69
2023-05-15T05:12:09.316Z,99776.09
2023-05-15T05:14:35.971Z,99777.75
2023-05-15T05:17:02.990Z,99766.19
2023-05-15T05:19:30.065Z,99777.34
2023-05-15T05:21:58.389Z,99787.56
2023-05-15T05:24:25.253Z,99787.00
2023-05-15T05:26:51.898Z,99795.84
2023-05-15T05:29:18.501Z,99795.22
2023-05-15T05:31:46.989Z,99789.50
2023-05-15T05:34:13.754Z,99787.47
2023-05-15T05:36:43.518Z,99790.59
2023-05-15T05:39:10.132Z,99788.53
2023-05-15T05:41:36.689Z,99773.41
2023-05-15T05:44:03.347Z,99774.09
2023-05-15T05:46:29.941Z,99781.00
2023-05-15T05:48:56.636Z,99783.56
2023-05-15T05:51:23.216Z,99778.94
2023-05-15T05:53:49.909Z,99785.09
2023-05-15T05:56:16.570Z,99798.38
2023-05-15T05:58:43.211Z,99796.50
2023-05-15T06:01:09.991Z,99804.19
2023-05-15T06:03:36.844Z,99809.41
2023-05-15T06:06:03.657Z,99793.50
2023-05-15T06:08:30.404Z,99797.00
2023-05-15T06:10:57.119Z,99795.03
2023-05-15T06:13:23.723Z,99798.25
2023-05-15T06:15:51.072Z,99800.75
2023-05-15T06:18:17.816Z,99803.25
2023-05-15T06:20:46.891Z,99801.50
2023-05-15T06:23:13.577Z,99813.91
2023-05-15T06:25:40.202Z,99818.13
2023-05-15T06:28:06.964Z,99815.56
2023-05-15T06:30:34.948Z,99828.13
2023-05-15T06:33:01.707Z,99827.06
2023-05-15T06:35:28.414Z,99819.69
2023-05-15T06:37:56.528Z,99818.72
2023-05-15T06:40:24.688Z,99814.16
2023-05-15T06:42:51.486Z,99812.28
2023-05-15T06:45:18.189Z,99805.88
2023-05-15T06:47:44.820Z,99796.84
2023-05-15T06:50:11.537Z,99779.91
2023-05-15T06:52:38.181Z,99785.38
2023-05-15T06:55:05.213Z,99783.69
2023-05-15T06:57:34.031Z,99786.34
2023-05-15T07:00:00.661Z,99785.28
2023-05-15T07:02:27.254Z,99780.94
2023-05-15T07:04:54.014Z,99783.09
2023-05-15T07:07:20.637Z,99792.19
2023-05-15T07:09:48.471Z,99797.94
2023-05-15T07:12:15.659Z,99798.25
2023-05-15T07:14:43.375Z,99799.53
2023-05-15T07:17:10.021Z,99801.72
2023-05-15T07:19:36.769Z,99798.47
2023-05-15T07:22:05.917Z,99801.38
2023-05-15T07:24:32.646Z,99809.59
2023-05-15T07:26:59.452Z,99821.41
2023-05-15T07:29:26.206Z,99824.31
2023-05-15T07:31:53.233Z,99825.41
2023-05-15T07:34:19.945Z,99837.91
2023-05-15T07:36:46.559Z,99832.78
2023-05-15T07:39:13.887Z,99824.81
2023-05-15T07:41:40.601Z,99813.53
2023-05-15T07:44:07.261Z,99805.66
2023-05-15T07:46:35.073Z,99797.88
2023-05-15T07:49:01.965Z,99794.22
2023-05-15T07:51:28.957Z,99796.03
2023-05-15T07:53:55.786Z,99793.53
2023-05-15T07:56:22.353Z,99793.53
2023-05-15T07:58:48.958Z,99787.37
2023-05-15T08:01:16.028Z,99803.37
2023-05-15T08:03:42.764Z,99804.28
2023-05-15T08:06:09.450Z,99813.19
2023-05-15T08:08:36.160Z,99829.94
2023-05-15T08:11:03.207Z,99833.53
2023-05-15T08:13:30.064Z,99822.19
2023-05-15T08:15:56.728Z,99822.25
2023-05-15T08:18:23.424Z,99827.53
2023-05-15T08:20:50.123Z,99830.19
2023-05-15T08:23:16.771Z,99825.94
2023-05-15T08:25:43.428Z,99828.63
2023-05-15T08:28:10.966Z,99822.69
2023-05-15T08:30:37.816Z,99830.69
2023-05-15T08:33:04.583Z,99828.09
2023-05-15T08:35:31.325Z,99833.41
2023-05-15T08:37:58.582Z,99822.03
2023-05-15T08:40:38.488Z,99816.75
2023-05-15T08:43:15.625Z,99828.09
2023-05-15T08:45:42.512Z,99824.69
2023-05-15T08:48:11.477Z,99822.03
2023-05-15T08:50:38.996Z,99819.38
2023-05-15T08:53:06.058Z,99816.81
2023-05-15T08:55:32.891Z,99807.16
2023-05-15T08:57:59.970Z,99806.38
2023-05-15T09:00:29.389Z,99808.84
2023-05-15T09:02:57.912Z,99811.22
2023-05-15T09:05:24.949Z,99816.94
2023-05-15T09:07:51.921Z,99796.28
2023-05-15T09:10:18.723Z,99808.31
2023-05-15T09:12:45.868Z,99814.31
2023-05-15T09:15:13.999Z,99828.94
2023-05-15T09:17:41.066Z,99831.16
2023-05-15T09:20:08.673Z,99831.50
2023-05-15T09:22:35.899Z,99835.44
2023-05-15T09:25:03.351Z,99841.91
2023-05-15T09:27:30.082Z,99845.69
2023-05-15T09:29:59.788Z,99847.75
2023-05-15T09:32:27.426Z,99855.34
2023-05-15T09:34:54.105Z,99856.69
2023-05-15T09:37:31.256Z,99867.97
2023-05-15T09:40:09.183Z,99869.78
2023-05-15T09:42:36.554Z,99869.63
2023-05-15T09:45:03.384Z,99864.31
2023-05-15T09:47:30.294Z,99870.38
2023-05-15T09:49:59.514Z,99870.00
2023-05-15T09:52:27.856Z,99869.25
2023-05-15T09:54:54.497Z,99871.72
2023-05-15T09:57:21.483Z,99864.63
2023-05-15T09:59:48.691Z,99861.75
2023-05-15T10:02:25.143Z,99863.66
2023-05-15T10:04:58.121Z,99858.63
2023-05-15T10:07:42.981Z,99866.69
2023-05-15T10:10:10.115Z,99864.03
2023-05-15T10:12:37.046Z,99867.34
2023-05-15T10:15:03.962Z,99860.44
2023-05-15T10:17:31.991Z,99856.94
2023-05-15T10:19:59.303Z,99863.16
2023-05-15T10:22:29.154Z,99868.47
2023-05-15T10:25:03.181Z,99864.91
2023-05-15T10:27:30.662Z,99857.94
2023-05-15T10:29:57.371Z,99859.84
2023-05-15T10:32:24.590Z,99868.75
2023-05-15T10:34:51.397Z,99862.41
2023-05-15T10:37:17.978Z,99857.09
2023-05-15T10:39:44.679Z,99861.13
2023-05-15T10:42:11.234Z,99874.88
2023-05-15T10:44:37.933Z,99867.75
2023-05-15T10:47:04.761Z,99866.75
2023-05-15T10:49:31.471Z,99872.22
2023-05-15T10:52:00.291Z,99876.47
2023-05-15T10:54:26.906Z,99871.16
2023-05-15T10:56:55.463Z,99872.81
2023-05-15T10:59:24.796Z,99872.13
2023-05-15T11:01:51.607Z,99866.81
2023-05-15T11:04:18.702Z,99867.59
2023-05-15T11:06:48.907Z,99872.97
2023-05-15T11:09:21.415Z,99867.34
2023-05-15T11:11:55.844Z,99867.28
2023-05-15T11:14:25.654Z,99875.12
2023-05-15T11:16:55.652Z,99871.81
2023-05-15T11:19:31.551Z,99871.31
2023-05-15T11:21:58.321Z,99862.84
2023-05-15T11:24:31.598Z,99860.75
2023-05-15T11:26:59.991Z,99854.66
2023-05-15T11:29:26.689Z,99852.28
2023-05-15T11:31:53.261Z,99846.38
2023-05-15T11:34:35.434Z,99851.06
2023-05-15T11:37:02.156Z,99849.53
2023-05-15T11:39:28.792Z,99861.34
2023-05-15T11:41:55.382Z,99858.00
2023-05-15T11:44:23.200Z,99839.69
2023-05-15T11:46:51.247Z,99856.66
2023-05-15T11:49:20.992Z,99850.56
2023-05-15T11:51:48.332Z,99848.09
2023-05-15T11:54:15.089Z,99849.97
2023-05-15T11:56:43.435Z,99844.84
2023-05-15T11:59:12.269Z,99835.25
2023-05-15T12:01:42.714Z,99845.19
2023-05-15T12:04:16.421Z,99851.44
2023-05-15T12:06:44.680Z,99848.94
2023-05-15T12:09:16.766Z,99853.47
2023-05-15T12:11:53.144Z,99847.41
2023-05-15T12:14:29.920Z,99849.28
2023-05-15T12:17:04.204Z,99855.38
2023-05-15T12:19:31.678Z,99850.97
2023-05-15T12:21:58.262Z,99848.28
2023-05-15T12:24:26.716Z,99853.56
2023-05-15T12:26:54.815Z,99856.28
2023-05-15T12:29:23.273Z,99865.88
2023-05-15T12:31:53.936Z,99855.44
2023-05-15T12:34:21.190Z,99860.03
2023-05-15T12:36:47.818Z,99860.22
2023-05-15T12:39:14.543Z,99854.94
2023-05-15T12:41:41.163Z,99868.09
2023-05-15T12:44:15.428Z,99868.09
2023-05-15T12:46:44.745Z,99864.69
2023-05-15T12:49:12.762Z,99866.53
2023-05-15T12:51:43.292Z,99864.00
2023-05-15T12:54:22.108Z,99865.84
2023-05-15T12:56:48.781Z,99870.28
2023-05-15T12:59:15.748Z,99856.28
2023-05-15T13:01:42.711Z,99840.37
2023-05-15T13:04:09.785Z,99842.00
2023-05-15T13:06:46.314Z,99848.00
2023-05-15T13:09:13.855Z,99841.69
2023-05-15T13:11:44.009Z,99837.12
2023-05-15T13:14:17.657Z,99833.37
2023-05-15T13:16:46.638Z,99839.47
2023-05-15T13:19:13.680Z,99846.28
2023-05-15T13:21:40.371Z,99843.38
2023-05-15T13:24:09.929Z,99837.75
2023-05-15T13:26:36.573Z,99840.91
2023-05-15T13:29:03.631Z,99836.09
2023-05-15T13:31:30.305Z,99831.06
2023-05-15T13:33:56.959Z,99830.63
2023-05-15T13:36:23.563Z,99832.00
2023-05-15T13:38:50.140Z,99827.16
2023-05-15T13:41:16.804Z,99832.03
2023-05-15T13:43:43.421Z,99835.53
2023-05-15T13:46:10.068Z,99823.22
2023-05-15T13:48:36.733Z,99826.84
2023-05-15T13:51:03.459Z,99827.00
2023-05-15T13:53:30.114Z,99823.59
2023-05-15T13:55:56.835Z,99827.38
2023-05-15T13:58:26.505Z,99817.78
2023-05-15T14:00:53.298Z,99817.03
2023-05-15T14:03:20.068Z,99825.91
2023-05-15T14:05:46.784Z,99832.25
2023-05-15T14:08:13.486Z,99832.34
2023-05-15T14:10:40.111Z,99830.56
2023-05-15T14:13:06.897Z,99838.56
2023-05-15T14:15:33.566Z,99838.66
2023-05-15T14:18:00.310Z,99836.94
2023-05-15T14:20:27.132Z,99838.75
2023-05-15T14:22:53.884Z,99837.97
2023-05-15T14:25:20.496Z,99839.50
2023-05-15T14:27:47.574Z,99838.66
2023-05-15T14:30:14.485Z,99843.09
2023-05-15T14:32:41.553Z,99842.25
2023-05-15T14:35:08.347Z,99838.75
2023-05-15T14:37:34.980Z,99846.69
2023-05-15T14:40:04.320Z,99844.12
2023-05-15T14:42:31.187Z,99849.25
2023-05-15T14:44:57.825Z,99851.84
2023-05-15T14:47:25.414Z,99848.28
2023-05-15T14:49:52.022Z,99853.59
2023-05-15T14:52:18.583Z,99859.81
2023-05-15T14:54:51.218Z,99860.72
2023-05-15T14:57:23.802Z,99858.06
2023-05-15T14:59:50.408Z,99864.25
2023-05-15T15:02:17.029Z,99857.22
2023-05-15T15:04:43.625Z,99860.81
2023-05-15T15:07:11.072Z,99870.66
2023-05-15T15:09:40.567Z,99867.25
2023-05-15T15:12:07.743Z,99864.69
2023-05-15T15:14:34.312Z,99871.84
2023-05-15T15:17:00.872Z,99863.22
2023-05-15T15:19:27.721Z,99873.06
2023-05-15T15:21:56.656Z,99879.41
2023-05-15T15:24:23.292Z,99890.19
2023-05-15T15:26:49.944Z,99889.41
2023-05-15T15:29:16.624Z,99888.63
2023-05-15T15:31:43.322Z,99897.59
2023-05-15T15:34:11.256Z,99897.69
2023-05-15T15:36:40.280Z,99889.00
2023-05-15T15:39:07.416Z,99891.69
2023-05-15T15:41:38.337Z,99890.78
2023-05-15T15:44:05.566Z,99894.28
2023-05-15T15:46:32.270Z,99898.75
2023-05-15T15:48:58.963Z,99890.69
2023-05-15T15:51:25.700Z,99898.41
2023-05-15T15:53:52.345Z,99895.66
2023-05-15T15:56:19.074Z,99896.59
2023-05-15T15:58:45.691Z,99901.91
2023-05-15T16:01:12.390Z,99897.53
2023-05-15T16:03:39.127Z,99897.53
2023-05-15T16:06:06.052Z,99900.19
2023-05-15T16:08:32.640Z,99902.00
2023-05-15T16:10:59.231Z,99894.94
2023-05-15T16:13:25.902Z,99896.84
2023-05-15T16:15:54.965Z,99889.00
2023-05-15T16:18:21.631Z,99889.06
2023-05-15T16:20:48.637Z,99889.16
2023-05-15T16:23:16.267Z,99887.44
2023-05-15T16:25:46.294Z,99898.06
2023-05-15T16:28:13.571Z,99893.69
2023-05-15T16:30:49.011Z,99889.31
2023-05-15T16:33:17.877Z,99897.34
2023-05-15T16:35:44.749Z,99911.56
2023-05-15T16:38:11.416Z,99912.41
2023-05-15T16:40:38.010Z,99924.81
2023-05-15T16:43:04.951Z,99914.31
2023-05-15T16:45:31.718Z,99920.53
2023-05-15T16:47:58.423Z,99924.97
2023-05-15T16:50:25.189Z,99931.22
2023-05-15T16:52:52.028Z,99928.66
2023-05-15T16:55:18.972Z,99922.56
2023-05-15T16:57:45.687Z,99921.72
2023-05-15T17:00:13.468Z,99922.56
2023-05-15T17:02:41.807Z,99923.50
2023-05-15T17:05:09.616Z,99926.06
2023-05-15T17:07:37.147Z,99920.62
2023-05-15T17:10:04.665Z,99922.31
2023-05-15T17:12:31.261Z,99921.22
2023-05-15T17:14:57.898Z,99930.81
2023-05-15T17:17:25.694Z,99926.97
2023-05-15T17:19:53.097Z,99933.81
2023-05-15T17:22:20.106Z,99938.69
2023-05-15T17:24:50.996Z,99948.97
2023-05-15T17:27:18.526Z,99951.19
2023-05-15T17:29:45.568Z,99950.81
2023-05-15T17:32:12.293Z,99951.25
2023-05-15T17:34:39.247Z,99951.84
2023-05-15T17:37:05.939Z,99960.28
2023-05-15T17:39:32.735Z,99970.75
2023-05-15T17:41:59.321Z,99968.75
2023-05-15T17:44:29.901Z,99971.34
2023-05-15T17:46:59.882Z,99980.16
2023-05-15T17:49:26.615Z,99967.84
2023-05-15T17:51:53.850Z,99974.06
2023-05-15T17:54:20.587Z,99963.53
2023-05-15T17:56:48.118Z,99973.31
2023-05-15T17:59:14.696Z,99975.97
2023-05-15T18:01:41.337Z,99975.09
2023-05-15T18:04:08.477Z,99974.25
2023-05-15T18:06:35.072Z,99974.25
2023-05-15T18:09:01.725Z,99970.75
2023-05-15T18:11:28.374Z,99962.78
2023-05-15T18:13:55.032Z,99959.28
2023-05-15T18:16:21.713Z,99968.09
2023-05-15T18:18:49.438Z,99962.78
2023-05-15T18:21:16.316Z,99965.34
2023-05-15T18:23:42.968Z,99967.91
2023-05-15T18:26:10.410Z,99964.50
2023-05-15T18:28:37.110Z,99962.69
2023-05-15T18:31:03.805Z,99968.00
2023-05-15T18:33:30.643Z,99985.56
2023-05-15T18:35:57.291Z,99985.63
2023-05-15T18:38:24.034Z,99987.34
2023-05-15T18:40:51.918Z,99983.81
2023-05-15T18:43:18.558Z,99999.69
2023-05-15T18:45:45.715Z,99999.69
2023-05-15T18:48:12.386Z,100002.41
2023-05-15T18:50:39.266Z,100015.62
2023-05-15T18:53:05.910Z,100015.62
2023-05-15T18:55:32.514Z,100019.13
2023-05-15T18:57:59.078Z,100015.62
2023-05-15T19:00:36.921Z,100016.47
2023-05-15T19:03:05.462Z,100018.34
2023-05-15T19:05:33.990Z,100017.47
2023-05-15T19:08:00.855Z,100023.75
2023-05-15T19:10:29.488Z,100029.19
2023-05-15T19:12:56.997Z,100021.44
2023-05-15T19:15:24.448Z,100031.25
2023-05-15T19:17:51.815Z,100031.44
2023-05-15T19:20:18.665Z,100031.59
2023-05-15T19:22:45.287Z,100038.81
2023-05-15T19:25:11.897Z,100035.38
2023-05-15T19:27:38.566Z,100028.50
2023-05-15T19:30:07.087Z,100032.09
2023-05-15T19:32:34.441Z,100042.88
2023-05-15T19:35:01.217Z,100043.03
2023-05-15T19:37:27.905Z,100047.50
2023-05-15T19:39:54.539Z,100043.19
2023-05-15T19:42:21.190Z,100031.81
2023-05-15T19:44:47.830Z,100042.50
2023-05-15T19:47:14.465Z,100039.06
2023-05-15T19:49:41.179Z,100040.09
2023-05-15T19:52:07.786Z,100030.50
2023-05-15T19:54:34.455Z,100035.03
2023-05-15T19:57:03.078Z,100039.47
2023-05-15T19:59:29.928Z,100034.34
2023-05-15T20:01:56.738Z,100024.75
2023-05-15T20:04:23.601Z,100033.75
2023-05-15T20:06:50.385Z,100031.09
2023-05-15T20:09:17.094Z,100031.16
2023-05-15T20:11:43.950Z,100027.75
2023-05-15T20:14:10.532Z,100030.47
2023-05-15T20:16:37.229Z,100035.00
2023-05-15T20:19:04.112Z,100036.78
2023-05-15T20:21:32.063Z,100036.03
2023-05-15T20:23:58.674Z,100050.19
2023-05-15T20:26:25.247Z,100045.94
2023-05-15T20:28:52.180Z,100051.28
2023-05-15T20:31:18.824Z,100059.34
2023-05-15T20:33:45.468Z,100063.78
2023-05-15T20:36:12.440Z,100055.97
2023-05-15T20:38:39.102Z,100067.53
2023-05-15T20:41:05.798Z,100070.28
2023-05-15T20:43:32.434Z,100070.38
2023-05-15T20:45:59.152Z,100065.13
2023-05-15T20:48:25.938Z,100074.00
2023-05-15T20:50:53.498Z,100073.25
2023-05-15T20:53:20.260Z,100074.25
2023-05-15T20:55:46.965Z,100066.38
2023-05-15T20:58:13.609Z,100069.09
2023-05-15T21:00:40.284Z,100061.22
2023-05-15T21:03:07.129Z,100060.47
2023-05-15T21:05:33.919Z,100051.66
2023-05-15T21:08:00.677Z,100057.87
2023-05-15T21:10:27.569Z,100061.47
2023-05-15T21:12:54.828Z,100062.41
2023-05-15T21:15:22.358Z,100064.13
2023-05-15T21:17:48.976Z,100065.06
2023-05-15T21:20:15.710Z,100066.00
2023-05-15T21:22:42.515Z,100071.31
2023-05-15T21:25:09.651Z,100067.81
2023-05-15T21:27:36.235Z,100062.56
2023-05-15T21:30:02.939Z,100067.00
2023-05-15T21:32:29.607Z,100074.94
2023-05-15T21:34:56.350Z,100078.53
2023-05-15T21:37:22.947Z,100068.88
2023-05-15T21:39:49.636Z,100062.72
2023-05-15T21:42:16.235Z,100071.59
2023-05-15T21:44:43.013Z,100062.78
2023-05-15T21:47:09.587Z,100065.44
2023-05-15T21:49:36.215Z,100076.12
2023-05-15T21:52:02.869Z,100078.69
2023-05-15T21:54:29.887Z,100076.22
2023-05-15T21:56:59.703Z,100085.88
2023-05-15T21:59:26.349Z,100085.88
2023-05-15T22:01:52.960Z,100094.75
2023-05-15T22:04:19.586Z,100096.56
2023-05-15T22:06:46.198Z,100092.13
2023-05-15T22:09:12.783Z,100101.84
2023-05-15T22:11:39.341Z,100095.72
2023-05-15T22:14:06.324Z,100106.41
2023-05-15T22:16:33.242Z,100113.50
2023-05-15T22:19:00.024Z,100117.06
2023-05-15T22:21:26.763Z,100122.37
2023-05-15T22:23:53.421Z,100125.09
2023-05-15T22:26:20.954Z,100130.41
2023-05-15T22:28:48.407Z,100130.50
2023-05-15T22:31:15.039Z,100135.78
2023-05-15T22:33:41.718Z,100138.50
2023-05-15T22:36:08.500Z,100131.44
2023-05-15T22:38:35.072Z,100128.84
2023-05-15T22:41:01.676Z,100137.62
2023-05-15T22:43:28.266Z,100130.62
2023-05-15T22:45:55.066Z,100125.41
2023-05-15T22:48:23.081Z,100123.72
2023-05-15T22:50:49.675Z,100116.62
2023-05-15T22:53:16.460Z,100114.91
2023-05-15T22:55:43.138Z,100112.25
2023-05-15T22:58:09.743Z,100110.50
2023-05-15T23:00:36.439Z,100106.16
2023-05-15T23:03:03.060Z,100107.94
2023-05-15T23:05:29.807Z,100107.09
2023-05-15T23:07:56.367Z,100093.84
2023-05-15T23:10:23.090Z,100099.16
2023-05-15T23:12:49.701Z,100093.03
2023-05-15T23:15:16.693Z,100094.84
2023-05-15T23:17:43.373Z,100096.62
2023-05-15T23:20:10.565Z,100085.19
2023-05-15T23:22:37.276Z,100095.78
2023-05-15T23:25:04.048Z,100081.78
2023-05-15T23:27:30.777Z,100092.38
2023-05-15T23:29:57.422Z,100095.88
2023-05-15T23:32:24.166Z,100089.72
2023-05-15T23:34:51.996Z,100089.72
2023-05-15T23:37:18.916Z,100094.16
2023-05-15T23:39:45.853Z,100084.47
2023-05-15T23:42:12.587Z,100080.97
2023-05-15T23:44:39.235Z,100083.63
2023-05-15T23:47:06.618Z,100074.81
2023-05-15T23:49:33.682Z,100077.47
2023-05-15T23:52:00.627Z,100072.25
2023-05-15T23:54:27.938Z,100067.91
2023-05-15T23:56:54.737Z,100070.53
2023-05-15T23:59:21.331Z,100058.16
